sensor_id;sensor_type;location;lat;lon;timestamp;pressure;altitude;pressure_sealevel;temperature;humidity
10652;BME280;5374;42.742;23.266;2023-05-20T00:01:26;95734.28;;;12.73;100.00
10652;BME280;5374;42.742;23.266;2023-05-20T00:04:13;95751.69;;;12.86;100.00
10652;BME280;5374;42.742;23.266;2023-05-20T00:07:00;95738.00;;;12.72;100.00
10652;BME280;5374;42.742;23.266;2023-05-20T00:09:48;95749.19;;;12.74;100.00
10652;BME280;5374;42.742;23.266;2023-05-20T00:12:57;95743.28;;;12.67;100.00
10652;BME280;5374;42.742;23.266;2023-05-20T00:15:48;95753.94;;;12.67;100.00
10652;BME280;5374;42.742;23.266;2023-05-20T00:21:57;95735.53;;;12.60;100.00
10652;BME280;5374;42.742;23.266;2023-05-20T00:24:45;95736.28;;;12.56;100.00
10652;BME280;5374;42.742;23.266;2023-05-20T00:27:32;95734.38;;;12.51;100.00
10652;BME280;5374;42.742;23.266;2023-05-20T00:30:19;95731.63;;;12.41;100.00
10652;BME280;5374;42.742;23.266;2023-05-20T00:33:08;95720.44;;;12.39;100.00
10652;BME280;5374;42.742;23.266;2023-05-20T00:35:55;95720.88;;;12.31;100.00
10652;BME280;5374;42.742;23.266;2023-05-20T00:38:42;95729.72;;;12.37;100.00
10652;BME280;5374;42.742;23.266;2023-05-20T00:41:29;95737.16;;;12.35;100.00
10652;BME280;5374;42.742;23.266;2023-05-20T00:44:16;95721.13;;;12.29;100.00
10652;BME280;5374;42.742;23.266;2023-05-20T00:47:04;95720.34;;;12.29;100.00
10652;BME280;5374;42.742;23.266;2023-05-20T00:49:53;95716.31;;;12.26;100.00
10652;BME280;5374;42.742;23.266;2023-05-20T00:52:40;95711.78;;;12.27;100.00
10652;BME280;5374;42.742;23.266;2023-05-20T00:55:29;95718.66;;;12.23;100.00
10652;BME280;5374;42.742;23.266;2023-05-20T00:58:17;95713.88;;;12.20;100.00
10652;BME280;5374;42.742;23.266;2023-05-20T01:01:04;95714.38;;;12.17;100.00
10652;BME280;5374;42.742;23.266;2023-05-20T01:03:51;95712.72;;;12.11;100.00
10652;BME280;5374;42.742;23.266;2023-05-20T01:06:40;95711.66;;;12.12;100.00
10652;BME280;5374;42.742;23.266;2023-05-20T01:09:27;95707.91;;;12.08;100.00
10652;BME280;5374;42.742;23.266;2023-05-20T01:12:19;95709.19;;;12.05;100.00
10652;BME280;5374;42.742;23.266;2023-05-20T01:15:08;95712.41;;;12.07;100.00
10652;BME280;5374;42.742;23.266;2023-05-20T01:17:59;95720.66;;;12.06;100.00
10652;BME280;5374;42.742;23.266;2023-05-20T01:20:48;95713.91;;;11.98;100.00
10652;BME280;5374;42.742;23.266;2023-05-20T01:23:39;95722.44;;;12.00;100.00
10652;BME280;5374;42.742;23.266;2023-05-20T01:26:26;95716.31;;;11.99;100.00
10652;BME280;5374;42.742;23.266;2023-05-20T01:29:13;95718.97;;;11.99;100.00
10652;BME280;5374;42.742;23.266;2023-05-20T01:32:06;95718.72;;;11.96;100.00
10652;BME280;5374;42.742;23.266;2023-05-20T01:34:54;95716.84;;;11.96;100.00
10652;BME280;5374;42.742;23.266;2023-05-20T01:37:42;95716.00;;;11.91;100.00
10652;BME280;5374;42.742;23.266;2023-05-20T01:40:32;95700.97;;;11.80;100.00
10652;BME280;5374;42.742;23.266;2023-05-20T01:43:20;95713.72;;;11.78;100.00
10652;BME280;5374;42.742;23.266;2023-05-20T01:46:07;95716.91;;;11.80;100.00
10652;BME280;5374;42.742;23.266;2023-05-20T01:48:54;95717.41;;;11.77;100.00
10652;BME280;5374;42.742;23.266;2023-05-20T01:51:41;95713.13;;;11.76;100.00
10652;BME280;5374;42.742;23.266;2023-05-20T01:54:28;95709.88;;;11.69;100.00
10652;BME280;5374;42.742;23.266;2023-05-20T01:57:17;95710.63;;;11.64;100.00
10652;BME280;5374;42.742;23.266;2023-05-20T02:00:06;95717.22;;;11.61;100.00
10652;BME280;5374;42.742;23.266;2023-05-20T02:02:54;95714.50;;;11.56;100.00
10652;BME280;5374;42.742;23.266;2023-05-20T02:05:41;95700.09;;;11.52;100.00
10652;BME280;5374;42.742;23.266;2023-05-20T02:08:28;95698.53;;;11.56;100.00
10652;BME280;5374;42.742;23.266;2023-05-20T02:11:15;95699.09;;;11.58;100.00
10652;BME280;5374;42.742;23.266;2023-05-20T02:14:05;95697.50;;;11.57;100.00
10652;BME280;5374;42.742;23.266;2023-05-20T02:16:52;95693.22;;;11.56;100.00
10652;BME280;5374;42.742;23.266;2023-05-20T02:19:39;95698.78;;;11.55;100.00
10652;BME280;5374;42.742;23.266;2023-05-20T02:22:26;95689.97;;;11.49;100.00
10652;BME280;5374;42.742;23.266;2023-05-20T02:25:15;95689.91;;;11.44;100.00
10652;BME280;5374;42.742;23.266;2023-05-20T02:28:03;95701.03;;;11.41;100.00
10652;BME280;5374;42.742;23.266;2023-05-20T02:30:56;95693.25;;;11.35;100.00
10652;BME280;5374;42.742;23.266;2023-05-20T02:33:43;95693.25;;;11.35;100.00
10652;BME280;5374;42.742;23.266;2023-05-20T02:36:30;95693.19;;;11.29;100.00
10652;BME280;5374;42.742;23.266;2023-05-20T02:39:18;95691.28;;;11.25;100.00
10652;BME280;5374;42.742;23.266;2023-05-20T02:42:06;95690.09;;;11.16;100.00
10652;BME280;5374;42.742;23.266;2023-05-20T02:44:54;95694.44;;;11.22;100.00
10652;BME280;5374;42.742;23.266;2023-05-20T02:47:44;95676.41;;;11.07;100.00
10652;BME280;5374;42.742;23.266;2023-05-20T02:50:31;95672.09;;;11.01;100.00
10652;BME280;5374;42.742;23.266;2023-05-20T02:53:19;95707.66;;;11.17;100.00
10652;BME280;5374;42.742;23.266;2023-05-20T02:56:07;95698.06;;;11.16;100.00
10652;BME280;5374;42.742;23.266;2023-05-20T02:58:54;95698.00;;;11.11;100.00
10652;BME280;5374;42.742;23.266;2023-05-20T03:01:41;95693.25;;;11.13;100.00
10652;BME280;5374;42.742;23.266;2023-05-20T03:04:30;95696.81;;;11.02;100.00
10652;BME280;5374;42.742;23.266;2023-05-20T03:07:17;95687.41;;;10.94;100.00
10652;BME280;5374;42.742;23.266;2023-05-20T03:10:07;95715.56;;;11.12;100.00
10652;BME280;5374;42.742;23.266;2023-05-20T03:12:56;95727.88;;;11.18;100.00
10652;BME280;5374;42.742;23.266;2023-05-20T03:15:43;95727.06;;;11.17;100.00
10652;BME280;5374;42.742;23.266;2023-05-20T03:18:31;95730.84;;;11.21;100.00
10652;BME280;5374;42.742;23.266;2023-05-20T03:21:20;95728.19;;;11.21;100.00
10652;BME280;5374;42.742;23.266;2023-05-20T03:24:08;95723.22;;;11.30;100.00
10652;BME280;5374;42.742;23.266;2023-05-20T03:26:56;95730.72;;;11.33;100.00
10652;BME280;5374;42.742;23.266;2023-05-20T03:29:43;95724.41;;;11.39;100.00
10652;BME280;5374;42.742;23.266;2023-05-20T03:32:30;95719.16;;;11.44;100.00
10652;BME280;5374;42.742;23.266;2023-05-20T03:35:17;95731.22;;;11.52;100.00
10652;BME280;5374;42.742;23.266;2023-05-20T03:38:06;95701.59;;;11.43;100.00
10652;BME280;5374;42.742;23.266;2023-05-20T03:40:53;95736.53;;;11.74;100.00
10652;BME280;5374;42.742;23.266;2023-05-20T03:43:40;95733.31;;;11.93;100.00
10652;BME280;5374;42.742;23.266;2023-05-20T03:46:27;95739.34;;;12.75;100.00
10652;BME280;5374;42.742;23.266;2023-05-20T03:49:15;95741.84;;;14.01;100.00
10652;BME280;5374;42.742;23.266;2023-05-20T03:52:03;95738.16;;;15.14;92.92
10652;BME280;5374;42.742;23.266;2023-05-20T03:54:52;95751.25;;;16.05;77.98
10652;BME280;5374;42.742;23.266;2023-05-20T03:57:39;95755.91;;;16.78;71.85
10652;BME280;5374;42.742;23.266;2023-05-20T04:00:26;95761.06;;;17.32;67.45
10652;BME280;5374;42.742;23.266;2023-05-20T04:03:16;95777.22;;;17.80;65.35
10652;BME280;5374;42.742;23.266;2023-05-20T04:06:03;95775.63;;;18.21;62.62
10652;BME280;5374;42.742;23.266;2023-05-20T04:08:50;95771.34;;;18.39;61.24
10652;BME280;5374;42.742;23.266;2023-05-20T04:11:39;95759.19;;;18.23;60.39
10652;BME280;5374;42.742;23.266;2023-05-20T04:14:26;95766.69;;;18.44;60.73
10652;BME280;5374;42.742;23.266;2023-05-20T04:17:13;95768.59;;;18.63;59.38
10652;BME280;5374;42.742;23.266;2023-05-20T04:20:01;95768.03;;;18.98;59.51
10652;BME280;5374;42.742;23.266;2023-05-20T04:22:50;95769.31;;;19.20;58.82
10652;BME280;5374;42.742;23.266;2023-05-20T04:25:38;95757.97;;;19.36;58.38
10652;BME280;5374;42.742;23.266;2023-05-20T04:28:29;95760.59;;;19.55;57.91
10652;BME280;5374;42.742;23.266;2023-05-20T04:31:16;95763.31;;;19.83;57.54
10652;BME280;5374;42.742;23.266;2023-05-20T04:34:05;95764.66;;;20.21;55.74
10652;BME280;5374;42.742;23.266;2023-05-20T04:36:52;95761.28;;;21.10;53.24
10652;BME280;5374;42.742;23.266;2023-05-20T04:39:40;95748.28;;;22.31;49.80
10652;BME280;5374;42.742;23.266;2023-05-20T04:42:29;95762.47;;;23.78;46.44
10652;BME280;5374;42.742;23.266;2023-05-20T04:45:17;95772.09;;;25.05;43.06
10652;BME280;5374;42.742;23.266;2023-05-20T04:48:05;95779.69;;;26.51;40.70
10652;BME280;5374;42.742;23.266;2023-05-20T04:51:02;95770.94;;;27.53;38.11
10652;BME280;5374;42.742;23.266;2023-05-20T04:54:15;95786.50;;;28.98;35.99
10652;BME280;5374;42.742;23.266;2023-05-20T04:57:07;95788.78;;;29.96;33.97
10652;BME280;5374;42.742;23.266;2023-05-20T04:59:57;95784.84;;;30.95;32.93
10652;BME280;5374;42.742;23.266;2023-05-20T05:02:46;95780.50;;;31.95;31.04
10652;BME280;5374;42.742;23.266;2023-05-20T05:05:33;95776.44;;;32.77;30.01
10652;BME280;5374;42.742;23.266;2023-05-20T05:08:21;95776.28;;;33.25;29.30
10652;BME280;5374;42.742;23.266;2023-05-20T05:11:08;95784.75;;;33.82;28.26
10652;BME280;5374;42.742;23.266;2023-05-20T05:13:55;95787.13;;;34.12;27.74
10652;BME280;5374;42.742;23.266;2023-05-20T05:16:42;95782.47;;;34.34;27.65
10652;BME280;5374;42.742;23.266;2023-05-20T05:19:31;95786.31;;;34.86;27.40
10652;BME280;5374;42.742;23.266;2023-05-20T05:22:18;95785.03;;;35.29;26.55
10652;BME280;5374;42.742;23.266;2023-05-20T05:25:06;95778.69;;;35.25;26.75
10652;BME280;5374;42.742;23.266;2023-05-20T05:27:53;95780.44;;;34.73;27.38
10652;BME280;5374;42.742;23.266;2023-05-20T05:30:40;95776.09;;;34.19;27.76
10652;BME280;5374;42.742;23.266;2023-05-20T05:33:27;95771.22;;;33.31;28.52
10652;BME280;5374;42.742;23.266;2023-05-20T05:36:16;95771.28;;;32.69;29.70
10652;BME280;5374;42.742;23.266;2023-05-20T05:39:03;95773.16;;;32.10;30.13
10652;BME280;5374;42.742;23.266;2023-05-20T05:41:50;95764.03;;;31.58;31.55
10652;BME280;5374;42.742;23.266;2023-05-20T05:44:38;95764.88;;;30.95;32.44
10652;BME280;5374;42.742;23.266;2023-05-20T05:47:26;95760.47;;;30.60;33.20
10652;BME280;5374;42.742;23.266;2023-05-20T05:50:17;95764.44;;;30.14;33.87
10652;BME280;5374;42.742;23.266;2023-05-20T05:53:05;95768.63;;;29.85;34.05
10652;BME280;5374;42.742;23.266;2023-05-20T05:55:52;95771.13;;;29.71;34.96
10652;BME280;5374;42.742;23.266;2023-05-20T05:58:39;95761.38;;;29.50;34.39
10652;BME280;5374;42.742;23.266;2023-05-20T06:01:27;95760.53;;;29.27;35.65
10652;BME280;5374;42.742;23.266;2023-05-20T06:04:14;95750.03;;;29.10;35.70
10652;BME280;5374;42.742;23.266;2023-05-20T06:07:01;95754.84;;;29.16;36.27
10652;BME280;5374;42.742;23.266;2023-05-20T06:09:49;95746.22;;;29.14;35.83
10652;BME280;5374;42.742;23.266;2023-05-20T06:12:36;95715.84;;;28.81;35.73
10652;BME280;5374;42.742;23.266;2023-05-20T06:15:23;95741.78;;;28.87;35.91
10652;BME280;5374;42.742;23.266;2023-05-20T06:18:11;95727.31;;;28.71;36.53
10652;BME280;5374;42.742;23.266;2023-05-20T06:20:58;95741.34;;;28.85;36.83
10652;BME280;5374;42.742;23.266;2023-05-20T06:23:45;95733.84;;;29.01;37.33
10652;BME280;5374;42.742;23.266;2023-05-20T06:26:34;95739.00;;;29.25;37.53
10652;BME280;5374;42.742;23.266;2023-05-20T06:29:22;95738.63;;;29.46;35.53
10652;BME280;5374;42.742;23.266;2023-05-20T06:32:09;95731.81;;;29.37;35.58
10652;BME280;5374;42.742;23.266;2023-05-20T06:34:56;95722.94;;;29.43;36.31
10652;BME280;5374;42.742;23.266;2023-05-20T06:37:43;95717.97;;;29.49;35.43
10652;BME280;5374;42.742;23.266;2023-05-20T06:40:31;95715.16;;;29.26;35.47
10652;BME280;5374;42.742;23.266;2023-05-20T06:43:19;95712.06;;;29.27;35.47
10652;BME280;5374;42.742;23.266;2023-05-20T06:46:06;95695.00;;;29.34;35.28
10652;BME280;5374;42.742;23.266;2023-05-20T06:48:53;95707.66;;;29.65;35.17
10652;BME280;5374;42.742;23.266;2023-05-20T06:51:40;95703.41;;;29.68;34.32
10652;BME280;5374;42.742;23.266;2023-05-20T06:54:28;95709.72;;;29.94;32.53
10652;BME280;5374;42.742;23.266;2023-05-20T06:57:15;95718.31;;;29.93;33.41
10652;BME280;5374;42.742;23.266;2023-05-20T07:00:05;95711.97;;;30.12;34.27
10652;BME280;5374;42.742;23.266;2023-05-20T07:02:53;95714.00;;;29.46;33.26
10652;BME280;5374;42.742;23.266;2023-05-20T07:05:41;95713.97;;;29.04;33.84
10652;BME280;5374;42.742;23.266;2023-05-20T07:08:28;95711.47;;;29.38;32.51
10652;BME280;5374;42.742;23.266;2023-05-20T07:11:15;95707.81;;;29.49;32.18
10652;BME280;5374;42.742;23.266;2023-05-20T07:14:02;95709.19;;;29.63;33.30
10652;BME280;5374;42.742;23.266;2023-05-20T07:16:51;95711.31;;;29.96;30.45
10652;BME280;5374;42.742;23.266;2023-05-20T07:19:38;95713.00;;;30.26;30.77
10652;BME280;5374;42.742;23.266;2023-05-20T07:22:25;95712.41;;;30.14;31.46
10652;BME280;5374;42.742;23.266;2023-05-20T07:25:13;95687.63;;;29.57;31.94
10652;BME280;5374;42.742;23.266;2023-05-20T07:28:00;95705.75;;;30.15;32.93
10652;BME280;5374;42.742;23.266;2023-05-20T07:30:47;95696.38;;;30.16;32.32
10652;BME280;5374;42.742;23.266;2023-05-20T07:33:37;95684.56;;;30.12;33.00
10652;BME280;5374;42.742;23.266;2023-05-20T07:36:25;95693.22;;;30.14;32.58
10652;BME280;5374;42.742;23.266;2023-05-20T07:39:14;95694.50;;;30.20;32.80
10652;BME280;5374;42.742;23.266;2023-05-20T07:42:01;95683.03;;;30.41;33.37
10652;BME280;5374;42.742;23.266;2023-05-20T07:44:48;95694.09;;;29.95;31.43
10652;BME280;5374;42.742;23.266;2023-05-20T07:47:35;95689.66;;;29.87;31.92
10652;BME280;5374;42.742;23.266;2023-05-20T07:50:24;95691.84;;;29.32;34.28
10652;BME280;5374;42.742;23.266;2023-05-20T07:53:11;95694.31;;;29.86;32.47
10652;BME280;5374;42.742;23.266;2023-05-20T07:55:58;95686.66;;;29.96;32.47
10652;BME280;5374;42.742;23.266;2023-05-20T07:58:52;95690.53;;;30.17;31.42
10652;BME280;5374;42.742;23.266;2023-05-20T08:01:40;95693.16;;;30.10;31.34
10652;BME280;5374;42.742;23.266;2023-05-20T08:04:27;95692.75;;;30.08;31.28
10652;BME280;5374;42.742;23.266;2023-05-20T08:07:16;95697.63;;;29.96;31.94
10652;BME280;5374;42.742;23.266;2023-05-20T08:10:06;95685.16;;;29.75;33.03
10652;BME280;5374;42.742;23.266;2023-05-20T08:12:53;95695.78;;;29.35;33.44
10652;BME280;5374;42.742;23.266;2023-05-20T08:15:40;95689.16;;;28.93;34.17
10652;BME280;5374;42.742;23.266;2023-05-20T08:18:28;95676.78;;;28.26;35.90
10652;BME280;5374;42.742;23.266;2023-05-20T08:21:15;95678.09;;;28.32;34.89
10652;BME280;5374;42.742;23.266;2023-05-20T08:24:04;95674.66;;;28.54;35.49
10652;BME280;5374;42.742;23.266;2023-05-20T08:26:55;95678.81;;;28.48;36.13
10652;BME280;5374;42.742;23.266;2023-05-20T08:29:43;95672.00;;;28.39;34.65
10652;BME280;5374;42.742;23.266;2023-05-20T08:32:30;95674.13;;;28.30;35.04
10652;BME280;5374;42.742;23.266;2023-05-20T08:35:17;95653.81;;;27.76;35.82
10652;BME280;5374;42.742;23.266;2023-05-20T08:38:04;95668.97;;;26.99;36.82
10652;BME280;5374;42.742;23.266;2023-05-20T08:40:56;95667.88;;;26.60;38.59
10652;BME280;5374;42.742;23.266;2023-05-20T08:43:43;95671.13;;;26.93;37.67
10652;BME280;5374;42.742;23.266;2023-05-20T08:46:31;95670.19;;;27.01;36.44
10652;BME280;5374;42.742;23.266;2023-05-20T08:49:20;95675.75;;;26.77;36.38
10652;BME280;5374;42.742;23.266;2023-05-20T08:52:08;95665.66;;;26.37;36.75
10652;BME280;5374;42.742;23.266;2023-05-20T08:54:56;95669.81;;;26.87;37.18
10652;BME280;5374;42.742;23.266;2023-05-20T08:57:46;95669.81;;;26.87;37.50
10652;BME280;5374;42.742;23.266;2023-05-20T09:00:33;95652.56;;;26.55;36.66
10652;BME280;5374;42.742;23.266;2023-05-20T09:03:21;95661.72;;;26.35;36.85
10652;BME280;5374;42.742;23.266;2023-05-20T09:06:09;95656.06;;;26.15;37.63
10652;BME280;5374;42.742;23.266;2023-05-20T09:08:59;95665.91;;;26.20;37.92
10652;BME280;5374;42.742;23.266;2023-05-20T09:11:46;95649.66;;;26.23;37.82
10652;BME280;5374;42.742;23.266;2023-05-20T09:14:35;95648.88;;;26.23;37.51
10652;BME280;5374;42.742;23.266;2023-05-20T09:17:22;95647.88;;;26.15;37.10
10652;BME280;5374;42.742;23.266;2023-05-20T09:20:10;95650.66;;;25.91;37.67
10652;BME280;5374;42.742;23.266;2023-05-20T09:22:59;95634.22;;;25.87;39.04
10652;BME280;5374;42.742;23.266;2023-05-20T09:25:49;95646.66;;;26.01;39.32
10652;BME280;5374;42.742;23.266;2023-05-20T09:28:36;95651.53;;;26.07;38.15
10652;BME280;5374;42.742;23.266;2023-05-20T09:31:27;95652.00;;;25.85;38.27
10652;BME280;5374;42.742;23.266;2023-05-20T09:34:19;95634.88;;;25.48;38.58
10652;BME280;5374;42.742;23.266;2023-05-20T09:37:07;95650.16;;;25.40;39.83
10652;BME280;5374;42.742;23.266;2023-05-20T09:39:56;95632.50;;;25.46;39.35
10652;BME280;5374;42.742;23.266;2023-05-20T09:42:50;95643.25;;;25.31;39.19
10652;BME280;5374;42.742;23.266;2023-05-20T09:45:38;95638.59;;;25.31;40.34
10652;BME280;5374;42.742;23.266;2023-05-20T09:48:28;95637.59;;;25.24;40.28
10652;BME280;5374;42.742;23.266;2023-05-20T09:51:16;95623.22;;;25.47;40.41
10652;BME280;5374;42.742;23.266;2023-05-20T09:54:03;95613.78;;;25.33;39.57
10652;BME280;5374;42.742;23.266;2023-05-20T09:56:53;95620.41;;;25.68;40.57
10652;BME280;5374;42.742;23.266;2023-05-20T09:59:43;95607.56;;;25.81;40.56
10652;BME280;5374;42.742;23.266;2023-05-20T10:02:32;95615.50;;;25.98;40.13
10652;BME280;5374;42.742;23.266;2023-05-20T10:05:22;95613.16;;;25.72;39.58
10652;BME280;5374;42.742;23.266;2023-05-20T10:08:36;95618.78;;;25.79;39.80
10652;BME280;5374;42.742;23.266;2023-05-20T10:11:34;95608.34;;;25.57;38.79
10652;BME280;5374;42.742;23.266;2023-05-20T10:14:33;95609.50;;;25.44;38.83
10652;BME280;5374;42.742;23.266;2023-05-20T10:17:28;95604.97;;;25.48;39.40
10652;BME280;5374;42.742;23.266;2023-05-20T10:20:17;95587.41;;;25.70;39.42
10652;BME280;5374;42.742;23.266;2023-05-20T10:23:05;95580.25;;;25.77;37.80
10652;BME280;5374;42.742;23.266;2023-05-20T10:25:54;95589.56;;;25.28;39.01
10652;BME280;5374;42.742;23.266;2023-05-20T10:28:42;95570.72;;;25.10;40.46
10652;BME280;5374;42.742;23.266;2023-05-20T10:31:29;95579.59;;;25.07;39.67
10652;BME280;5374;42.742;23.266;2023-05-20T10:34:20;95570.97;;;25.17;39.86
10652;BME280;5374;42.742;23.266;2023-05-20T10:37:07;95585.13;;;25.11;37.85
10652;BME280;5374;42.742;23.266;2023-05-20T10:40:10;95580.66;;;24.82;38.85
10652;BME280;5374;42.742;23.266;2023-05-20T10:43:08;95579.75;;;24.90;39.08
10652;BME280;5374;42.742;23.266;2023-05-20T10:45:56;95561.63;;;24.82;38.15
10652;BME280;5374;42.742;23.266;2023-05-20T10:48:44;95563.78;;;24.76;39.00
10652;BME280;5374;42.742;23.266;2023-05-20T10:51:35;95560.19;;;24.84;39.51
10652;BME280;5374;42.742;23.266;2023-05-20T10:54:22;95557.16;;;24.98;39.74
10652;BME280;5374;42.742;23.266;2023-05-20T10:57:10;95539.03;;;25.14;39.54
10652;BME280;5374;42.742;23.266;2023-05-20T10:59:58;95541.06;;;25.17;37.34
10652;BME280;5374;42.742;23.266;2023-05-20T11:02:46;95538.81;;;25.19;38.95
10652;BME280;5374;42.742;23.266;2023-05-20T11:05:35;95536.78;;;25.16;38.98
10652;BME280;5374;42.742;23.266;2023-05-20T11:08:28;95540.03;;;25.10;38.91
10652;BME280;5374;42.742;23.266;2023-05-20T11:11:15;95538.00;;;24.95;36.66
10652;BME280;5374;42.742;23.266;2023-05-20T11:14:04;95549.41;;;24.76;36.38
10652;BME280;5374;42.742;23.266;2023-05-20T11:16:51;95540.88;;;24.65;39.03
10652;BME280;5374;42.742;23.266;2023-05-20T11:19:39;95548.41;;;24.80;38.93
10652;BME280;5374;42.742;23.266;2023-05-20T11:22:26;95538.31;;;24.93;40.25
10652;BME280;5374;42.742;23.266;2023-05-20T11:25:13;95528.84;;;24.99;39.67
10652;BME280;5374;42.742;23.266;2023-05-20T11:28:00;95514.78;;;24.85;39.84
10652;BME280;5374;42.742;23.266;2023-05-20T11:30:49;95519.84;;;24.86;38.23
10652;BME280;5374;42.742;23.266;2023-05-20T11:33:40;95505.03;;;24.60;39.97
10652;BME280;5374;42.742;23.266;2023-05-20T11:36:27;95513.03;;;24.68;39.09
10652;BME280;5374;42.742;23.266;2023-05-20T11:39:15;95505.34;;;24.58;38.98
10652;BME280;5374;42.742;23.266;2023-05-20T11:42:02;95488.72;;;24.60;39.92
10652;BME280;5374;42.742;23.266;2023-05-20T11:44:50;95496.41;;;24.58;39.67
10652;BME280;5374;42.742;23.266;2023-05-20T11:47:39;95490.28;;;24.48;40.26
10652;BME280;5374;42.742;23.266;2023-05-20T11:50:27;95495.94;;;24.23;39.59
10652;BME280;5374;42.742;23.266;2023-05-20T11:53:15;95493.13;;;23.86;40.31
10652;BME280;5374;42.742;23.266;2023-05-20T11:56:04;95483.28;;;24.14;40.46
10652;BME280;5374;42.742;23.266;2023-05-20T11:58:51;95508.25;;;24.20;39.56
10652;BME280;5374;42.742;23.266;2023-05-20T12:01:39;95520.69;;;24.42;40.65
10652;BME280;5374;42.742;23.266;2023-05-20T12:04:28;95477.25;;;24.42;39.99
10652;BME280;5374;42.742;23.266;2023-05-20T12:07:15;95472.84;;;24.37;39.52
10652;BME280;5374;42.742;23.266;2023-05-20T12:10:03;95461.53;;;24.35;39.51
10652;BME280;5374;42.742;23.266;2023-05-20T12:12:50;95477.88;;;24.60;40.00
10652;BME280;5374;42.742;23.266;2023-05-20T12:15:38;95465.84;;;24.36;39.72
10652;BME280;5374;42.742;23.266;2023-05-20T12:18:25;95475.03;;;24.23;39.09
10652;BME280;5374;42.742;23.266;2023-05-20T12:21:14;95466.13;;;23.90;40.88
10652;BME280;5374;42.742;23.266;2023-05-20T12:24:01;95471.13;;;24.00;41.04
10652;BME280;5374;42.742;23.266;2023-05-20T12:26:50;95477.19;;;23.84;38.57
10652;BME280;5374;42.742;23.266;2023-05-20T12:29:37;95484.38;;;23.80;39.64
10652;BME280;5374;42.742;23.266;2023-05-20T12:32:24;95479.50;;;23.95;39.13
10652;BME280;5374;42.742;23.266;2023-05-20T12:35:12;95482.75;;;24.00;39.35
10652;BME280;5374;42.742;23.266;2023-05-20T12:38:01;95488.06;;;23.97;39.65
10652;BME280;5374;42.742;23.266;2023-05-20T12:40:48;95486.47;;;23.96;41.22
10652;BME280;5374;42.742;23.266;2023-05-20T12:43:35;95493.91;;;23.86;42.94
10652;BME280;5374;42.742;23.266;2023-05-20T12:46:23;95489.97;;;23.63;42.49
10652;BME280;5374;42.742;23.266;2023-05-20T12:49:10;95523.91;;;23.69;42.95
10652;BME280;5374;42.742;23.266;2023-05-20T12:51:57;95500.63;;;23.39;39.50
10652;BME280;5374;42.742;23.266;2023-05-20T12:54:45;95512.78;;;23.33;38.66
10652;BME280;5374;42.742;23.266;2023-05-20T12:57:33;95492.03;;;23.07;39.79
10652;BME280;5374;42.742;23.266;2023-05-20T13:00:20;95509.19;;;22.91;39.83
10652;BME280;5374;42.742;23.266;2023-05-20T13:03:07;95500.84;;;23.04;39.51
10652;BME280;5374;42.742;23.266;2023-05-20T13:05:54;95493.16;;;23.06;39.79
10652;BME280;5374;42.742;23.266;2023-05-20T13:08:41;95498.84;;;23.22;39.70
10652;BME280;5374;42.742;23.266;2023-05-20T13:11:31;95499.56;;;23.31;40.40
10652;BME280;5374;42.742;23.266;2023-05-20T13:14:18;95502.34;;;23.23;40.57
10652;BME280;5374;42.742;23.266;2023-05-20T13:17:06;95476.91;;;23.06;41.79
10652;BME280;5374;42.742;23.266;2023-05-20T13:19:53;95479.13;;;23.13;40.75
10652;BME280;5374;42.742;23.266;2023-05-20T13:22:41;95462.53;;;23.14;41.77
10652;BME280;5374;42.742;23.266;2023-05-20T13:25:28;95466.63;;;23.00;41.59
10652;BME280;5374;42.742;23.266;2023-05-20T13:28:17;95446.03;;;22.78;42.79
10652;BME280;5374;42.742;23.266;2023-05-20T13:31:05;95454.16;;;22.78;43.03
10652;BME280;5374;42.742;23.266;2023-05-20T13:33:52;95450.00;;;22.80;42.45
10652;BME280;5374;42.742;23.266;2023-05-20T13:36:40;95454.56;;;22.89;41.79
10652;BME280;5374;42.742;23.266;2023-05-20T13:39:27;95450.16;;;22.75;41.74
10652;BME280;5374;42.742;23.266;2023-05-20T13:42:15;95456.38;;;22.67;42.52
10652;BME280;5374;42.742;23.266;2023-05-20T13:45:04;95454.63;;;22.80;42.20
10652;BME280;5374;42.742;23.266;2023-05-20T13:47:52;95449.34;;;22.75;43.13
10652;BME280;5374;42.742;23.266;2023-05-20T13:50:39;95457.81;;;22.73;42.74
10652;BME280;5374;42.742;23.266;2023-05-20T13:53:27;95437.19;;;22.90;41.98
10652;BME280;5374;42.742;23.266;2023-05-20T13:56:14;95457.50;;;23.04;41.69
10652;BME280;5374;42.742;23.266;2023-05-20T13:59:02;95430.50;;;22.87;42.26
10652;BME280;5374;42.742;23.266;2023-05-20T14:01:52;95424.22;;;22.66;44.10
10652;BME280;5374;42.742;23.266;2023-05-20T14:04:39;95420.78;;;22.57;43.69
10652;BME280;5374;42.742;23.266;2023-05-20T14:07:29;95420.44;;;22.29;46.23
10652;BME280;5374;42.742;23.266;2023-05-20T14:10:16;95409.44;;;22.25;47.21
10652;BME280;5374;42.742;23.266;2023-05-20T14:13:04;95396.00;;;22.46;47.64
10652;BME280;5374;42.742;23.266;2023-05-20T14:15:53;95399.91;;;22.19;47.99
10652;BME280;5374;42.742;23.266;2023-05-20T14:18:42;95395.56;;;22.35;47.92
10652;BME280;5374;42.742;23.266;2023-05-20T14:21:29;95398.41;;;22.39;49.27
10652;BME280;5374;42.742;23.266;2023-05-20T14:24:18;95400.91;;;21.97;50.01
10652;BME280;5374;42.742;23.266;2023-05-20T14:27:05;95390.53;;;22.16;49.45
10652;BME280;5374;42.742;23.266;2023-05-20T14:29:53;95394.25;;;22.41;49.82
10652;BME280;5374;42.742;23.266;2023-05-20T14:32:40;95383.19;;;22.26;49.43
10652;BME280;5374;42.742;23.266;2023-05-20T14:35:29;95397.84;;;22.25;49.34
10652;BME280;5374;42.742;23.266;2023-05-20T14:38:16;95390.69;;;22.20;49.63
10652;BME280;5374;42.742;23.266;2023-05-20T14:41:06;95388.59;;;22.26;49.75
10652;BME280;5374;42.742;23.266;2023-05-20T14:43:53;95399.75;;;22.15;48.92
10652;BME280;5374;42.742;23.266;2023-05-20T14:46:41;95405.41;;;21.84;51.00
10652;BME280;5374;42.742;23.266;2023-05-20T14:49:28;95408.94;;;21.50;54.14
10652;BME280;5374;42.742;23.266;2023-05-20T14:52:17;95405.91;;;21.09;58.36